Structure, Texas
Current Conditions -  °F | °C
As of 5:15 PM on Friday 19 Dec 2014 (Local Time) from KEDC Reporting Station
Overcast Overcast  
Wind Chill: 50°   Ceiling: 1100
Heat Index: 50°   Visibility: 10mi
Dew Point: 46°   Wind: 14mph
Humidity: 87%   Direction: 20°NNE
Pressure: 30.13"   Gusts: NA
Location:  30.2988°N, 97.3874°W
Report Text: KEDC 192315Z AUTO 02012KT 10SM OVC011 10/08 A3013 RMK AO2
Loading
Personal Weather Stations






























Interactive Weather Map New forecast layout! Learn more

10-Day Weather Forecast

Advertisements
Track Severe Weather on mobile